sensor_id;sensor_type;location;lat;lon;timestamp;temperature;humidity
8043;DHT22;4064;48.132;11.366;2022-10-22T00:01:13;13.20;99.90
8043;DHT22;4064;48.132;11.366;2022-10-22T00:03:39;13.20;99.90
8043;DHT22;4064;48.132;11.366;2022-10-22T00:06:05;13.20;99.90
8043;DHT22;4064;48.132;11.366;2022-10-22T00:08:31;13.20;99.90
8043;DHT22;4064;48.132;11.366;2022-10-22T00:10:57;13.20;99.90
8043;DHT22;4064;48.132;11.366;2022-10-22T00:13:22;13.20;99.90
8043;DHT22;4064;48.132;11.366;2022-10-22T00:15:48;13.20;99.90
8043;DHT22;4064;48.132;11.366;2022-10-22T00:18:14;13.20;99.90
8043;DHT22;4064;48.132;11.366;2022-10-22T00:20:40;13.20;99.90
8043;DHT22;4064;48.132;11.366;2022-10-22T00:23:05;13.20;99.90
8043;DHT22;4064;48.132;11.366;2022-10-22T00:25:33;13.20;99.90
8043;DHT22;4064;48.132;11.366;2022-10-22T00:28:00;13.20;99.90
8043;DHT22;4064;48.132;11.366;2022-10-22T00:30:26;13.20;99.90
8043;DHT22;4064;48.132;11.366;2022-10-22T00:32:52;13.20;99.90
8043;DHT22;4064;48.132;11.366;2022-10-22T00:35:18;13.20;99.90
8043;DHT22;4064;48.132;11.366;2022-10-22T00:37:43;13.10;99.90
8043;DHT22;4064;48.132;11.366;2022-10-22T00:40:09;13.20;99.90
8043;DHT22;4064;48.132;11.366;2022-10-22T00:42:35;13.10;99.90
8043;DHT22;4064;48.132;11.366;2022-10-22T00:50:06;13.10;99.90
8043;DHT22;4064;48.132;11.366;2022-10-22T00:52:34;13.10;99.90
8043;DHT22;4064;48.132;11.366;2022-10-22T00:55:01;13.10;99.90
8043;DHT22;4064;48.132;11.366;2022-10-22T00:57:27;13.10;99.90
8043;DHT22;4064;48.132;11.366;2022-10-22T00:59:53;13.10;99.90
8043;DHT22;4064;48.132;11.366;2022-10-22T01:02:20;13.10;99.90
8043;DHT22;4064;48.132;11.366;2022-10-22T01:04:46;13.00;99.90
8043;DHT22;4064;48.132;11.366;2022-10-22T01:07:20;13.00;99.90
8043;DHT22;4064;48.132;11.366;2022-10-22T01:15:44;13.00;99.90
8043;DHT22;4064;48.132;11.366;2022-10-22T01:26:36;13.00;99.90
8043;DHT22;4064;48.132;11.366;2022-10-22T01:29:16;12.90;99.90
8043;DHT22;4064;48.132;11.366;2022-10-22T01:31:58;13.00;99.90
8043;DHT22;4064;48.132;11.366;2022-10-22T01:34:25;13.00;99.90
8043;DHT22;4064;48.132;11.366;2022-10-22T01:36:53;12.90;99.90
8043;DHT22;4064;48.132;11.366;2022-10-22T01:39:20;13.00;99.90
8043;DHT22;4064;48.132;11.366;2022-10-22T01:41:47;12.90;99.90
8043;DHT22;4064;48.132;11.366;2022-10-22T01:44:31;12.90;99.90
8043;DHT22;4064;48.132;11.366;2022-10-22T01:47:15;12.90;99.90
8043;DHT22;4064;48.132;11.366;2022-10-22T01:52:14;12.90;99.90
8043;DHT22;4064;48.132;11.366;2022-10-22T01:55:17;12.90;99.90
8043;DHT22;4064;48.132;11.366;2022-10-22T02:03:57;12.90;99.90
8043;DHT22;4064;48.132;11.366;2022-10-22T02:06:26;12.90;99.90
8043;DHT22;4064;48.132;11.366;2022-10-22T02:08:54;12.90;99.90
8043;DHT22;4064;48.132;11.366;2022-10-22T02:11:20;12.80;99.90
8043;DHT22;4064;48.132;11.366;2022-10-22T02:13:49;12.80;99.90
8043;DHT22;4064;48.132;11.366;2022-10-22T02:16:27;12.80;99.90
8043;DHT22;4064;48.132;11.366;2022-10-22T02:18:55;12.80;99.90
8043;DHT22;4064;48.132;11.366;2022-10-22T02:21:22;12.80;99.90
8043;DHT22;4064;48.132;11.366;2022-10-22T02:23:48;12.80;99.90
8043;DHT22;4064;48.132;11.366;2022-10-22T02:26:27;12.80;99.90
8043;DHT22;4064;48.132;11.366;2022-10-22T02:29:06;12.80;99.90
8043;DHT22;4064;48.132;11.366;2022-10-22T02:31:37;12.80;99.90
8043;DHT22;4064;48.132;11.366;2022-10-22T02:34:08;12.80;99.90
8043;DHT22;4064;48.132;11.366;2022-10-22T02:36:36;12.80;99.90
8043;DHT22;4064;48.132;11.366;2022-10-22T02:39:02;12.80;99.90
8043;DHT22;4064;48.132;11.366;2022-10-22T02:41:29;12.80;99.90
8043;DHT22;4064;48.132;11.366;2022-10-22T02:43:55;12.80;99.90
8043;DHT22;4064;48.132;11.366;2022-10-22T02:46:21;12.90;99.90
8043;DHT22;4064;48.132;11.366;2022-10-22T02:48:47;12.80;99.90
8043;DHT22;4064;48.132;11.366;2022-10-22T02:51:13;12.80;99.90
8043;DHT22;4064;48.132;11.366;2022-10-22T02:53:39;12.80;99.90
8043;DHT22;4064;48.132;11.366;2022-10-22T02:56:05;12.80;99.90
8043;DHT22;4064;48.132;11.366;2022-10-22T02:58:30;12.80;99.90
8043;DHT22;4064;48.132;11.366;2022-10-22T03:00:56;12.70;99.90
8043;DHT22;4064;48.132;11.366;2022-10-22T03:03:22;12.70;99.90
8043;DHT22;4064;48.132;11.366;2022-10-22T03:05:49;12.70;99.90
8043;DHT22;4064;48.132;11.366;2022-10-22T03:08:15;12.60;99.90
8043;DHT22;4064;48.132;11.366;2022-10-22T03:10:40;12.60;99.90
8043;DHT22;4064;48.132;11.366;2022-10-22T03:13:06;12.50;99.90
8043;DHT22;4064;48.132;11.366;2022-10-22T03:15:32;12.50;99.90
8043;DHT22;4064;48.132;11.366;2022-10-22T03:17:57;12.40;99.90
8043;DHT22;4064;48.132;11.366;2022-10-22T03:20:23;12.40;99.90
8043;DHT22;4064;48.132;11.366;2022-10-22T03:22:48;12.40;99.90
8043;DHT22;4064;48.132;11.366;2022-10-22T03:25:17;12.20;99.90
8043;DHT22;4064;48.132;11.366;2022-10-22T03:27:44;12.20;99.90
8043;DHT22;4064;48.132;11.366;2022-10-22T03:30:11;12.20;99.90
8043;DHT22;4064;48.132;11.366;2022-10-22T03:32:36;12.10;99.90
8043;DHT22;4064;48.132;11.366;2022-10-22T03:35:03;12.00;99.90
8043;DHT22;4064;48.132;11.366;2022-10-22T03:37:30;12.00;99.90
8043;DHT22;4064;48.132;11.366;2022-10-22T03:39:56;12.00;99.90
8043;DHT22;4064;48.132;11.366;2022-10-22T03:42:22;12.00;99.90
8043;DHT22;4064;48.132;11.366;2022-10-22T03:44:48;11.90;99.90
8043;DHT22;4064;48.132;11.366;2022-10-22T03:47:14;11.90;99.90
8043;DHT22;4064;48.132;11.366;2022-10-22T03:49:39;11.80;99.90
8043;DHT22;4064;48.132;11.366;2022-10-22T03:52:10;11.90;99.90
8043;DHT22;4064;48.132;11.366;2022-10-22T03:54:37;11.80;99.90
8043;DHT22;4064;48.132;11.366;2022-10-22T03:57:04;11.70;99.90
8043;DHT22;4064;48.132;11.366;2022-10-22T03:59:43;11.70;99.90
8043;DHT22;4064;48.132;11.366;2022-10-22T04:02:09;11.70;99.90
8043;DHT22;4064;48.132;11.366;2022-10-22T04:04:35;11.70;99.90
8043;DHT22;4064;48.132;11.366;2022-10-22T04:07:02;11.70;99.90
8043;DHT22;4064;48.132;11.366;2022-10-22T04:09:33;11.60;99.90
8043;DHT22;4064;48.132;11.366;2022-10-22T04:11:59;11.60;99.90
8043;DHT22;4064;48.132;11.366;2022-10-22T04:14:25;11.60;99.90
8043;DHT22;4064;48.132;11.366;2022-10-22T04:16:51;11.60;99.90
8043;DHT22;4064;48.132;11.366;2022-10-22T04:19:16;11.60;99.90
8043;DHT22;4064;48.132;11.366;2022-10-22T04:21:42;11.50;99.90
8043;DHT22;4064;48.132;11.366;2022-10-22T04:24:08;11.50;99.90
8043;DHT22;4064;48.132;11.366;2022-10-22T04:26:34;11.50;99.90
8043;DHT22;4064;48.132;11.366;2022-10-22T04:28:59;11.50;99.90
8043;DHT22;4064;48.132;11.366;2022-10-22T04:31:25;11.50;99.90
8043;DHT22;4064;48.132;11.366;2022-10-22T04:33:55;11.40;99.90
8043;DHT22;4064;48.132;11.366;2022-10-22T04:36:22;11.40;99.90
8043;DHT22;4064;48.132;11.366;2022-10-22T04:38:56;11.40;99.90
8043;DHT22;4064;48.132;11.366;2022-10-22T04:41:28;11.40;99.90
8043;DHT22;4064;48.132;11.366;2022-10-22T04:43:55;11.40;99.90
8043;DHT22;4064;48.132;11.366;2022-10-22T04:46:21;11.40;99.90
8043;DHT22;4064;48.132;11.366;2022-10-22T04:48:47;11.30;99.90
8043;DHT22;4064;48.132;11.366;2022-10-22T04:51:15;11.40;99.90
8043;DHT22;4064;48.132;11.366;2022-10-22T04:53:41;11.30;99.90
8043;DHT22;4064;48.132;11.366;2022-10-22T04:56:12;11.30;99.90
8043;DHT22;4064;48.132;11.366;2022-10-22T04:58:41;11.30;99.90
8043;DHT22;4064;48.132;11.366;2022-10-22T05:01:18;11.30;99.90
8043;DHT22;4064;48.132;11.366;2022-10-22T05:03:45;11.20;99.90
8043;DHT22;4064;48.132;11.366;2022-10-22T05:06:11;11.20;99.90
8043;DHT22;4064;48.132;11.366;2022-10-22T05:08:37;11.20;99.90
8043;DHT22;4064;48.132;11.366;2022-10-22T05:11:15;11.20;99.90
8043;DHT22;4064;48.132;11.366;2022-10-22T05:13:40;11.20;99.90
8043;DHT22;4064;48.132;11.366;2022-10-22T05:16:06;11.20;99.90
8043;DHT22;4064;48.132;11.366;2022-10-22T05:18:36;11.20;99.90
8043;DHT22;4064;48.132;11.366;2022-10-22T05:21:10;11.20;99.90
8043;DHT22;4064;48.132;11.366;2022-10-22T05:23:37;11.20;99.90
8043;DHT22;4064;48.132;11.366;2022-10-22T05:26:03;11.20;99.90
8043;DHT22;4064;48.132;11.366;2022-10-22T05:28:30;11.20;99.90
8043;DHT22;4064;48.132;11.366;2022-10-22T05:30:57;11.20;99.90
8043;DHT22;4064;48.132;11.366;2022-10-22T05:33:24;11.20;99.90
8043;DHT22;4064;48.132;11.366;2022-10-22T05:35:50;11.30;99.90
8043;DHT22;4064;48.132;11.366;2022-10-22T05:38:16;11.30;99.90
8043;DHT22;4064;48.132;11.366;2022-10-22T05:40:42;11.30;99.90
8043;DHT22;4064;48.132;11.366;2022-10-22T05:43:07;11.30;99.90
8043;DHT22;4064;48.132;11.366;2022-10-22T05:45:41;11.30;99.90
8043;DHT22;4064;48.132;11.366;2022-10-22T05:48:07;11.40;99.90
8043;DHT22;4064;48.132;11.366;2022-10-22T05:50:37;11.40;99.90
8043;DHT22;4064;48.132;11.366;2022-10-22T05:53:04;11.40;99.90
8043;DHT22;4064;48.132;11.366;2022-10-22T05:55:34;11.50;99.90
8043;DHT22;4064;48.132;11.366;2022-10-22T05:58:02;11.50;99.90
8043;DHT22;4064;48.132;11.366;2022-10-22T06:00:27;11.50;99.90
8043;DHT22;4064;48.132;11.366;2022-10-22T06:02:53;11.50;99.90
8043;DHT22;4064;48.132;11.366;2022-10-22T06:05:18;11.50;99.90
8043;DHT22;4064;48.132;11.366;2022-10-22T06:07:44;11.50;99.90
8043;DHT22;4064;48.132;11.366;2022-10-22T06:10:15;11.50;99.90
8043;DHT22;4064;48.132;11.366;2022-10-22T06:12:41;11.50;99.90
8043;DHT22;4064;48.132;11.366;2022-10-22T06:15:10;11.50;99.90
8043;DHT22;4064;48.132;11.366;2022-10-22T06:17:36;11.50;99.90
8043;DHT22;4064;48.132;11.366;2022-10-22T06:20:01;11.50;99.90
8043;DHT22;4064;48.132;11.366;2022-10-22T06:22:27;11.50;99.90
8043;DHT22;4064;48.132;11.366;2022-10-22T06:24:53;11.50;99.90
8043;DHT22;4064;48.132;11.366;2022-10-22T06:27:18;11.50;99.90
8043;DHT22;4064;48.132;11.366;2022-10-22T06:29:44;11.50;99.90
8043;DHT22;4064;48.132;11.366;2022-10-22T06:32:09;11.60;99.90
8043;DHT22;4064;48.132;11.366;2022-10-22T06:34:35;11.60;99.90
8043;DHT22;4064;48.132;11.366;2022-10-22T06:37:00;11.60;99.90
8043;DHT22;4064;48.132;11.366;2022-10-22T06:39:26;11.70;99.90
8043;DHT22;4064;48.132;11.366;2022-10-22T06:41:52;11.70;99.90
8043;DHT22;4064;48.132;11.366;2022-10-22T06:44:19;11.70;99.90
8043;DHT22;4064;48.132;11.366;2022-10-22T06:46:47;11.70;99.90
8043;DHT22;4064;48.132;11.366;2022-10-22T06:49:14;11.70;99.90
8043;DHT22;4064;48.132;11.366;2022-10-22T06:51:40;11.80;99.90
8043;DHT22;4064;48.132;11.366;2022-10-22T06:54:06;11.80;99.90
8043;DHT22;4064;48.132;11.366;2022-10-22T06:56:32;11.80;99.90
8043;DHT22;4064;48.132;11.366;2022-10-22T06:58:58;11.80;99.90
8043;DHT22;4064;48.132;11.366;2022-10-22T07:01:27;11.90;99.90
8043;DHT22;4064;48.132;11.366;2022-10-22T07:03:52;11.90;99.90
8043;DHT22;4064;48.132;11.366;2022-10-22T07:06:19;11.90;99.90
8043;DHT22;4064;48.132;11.366;2022-10-22T07:08:45;12.00;99.90
8043;DHT22;4064;48.132;11.366;2022-10-22T07:13:41;12.00;99.90
8043;DHT22;4064;48.132;11.366;2022-10-22T07:16:07;12.00;99.90
8043;DHT22;4064;48.132;11.366;2022-10-22T07:18:34;12.00;99.90
8043;DHT22;4064;48.132;11.366;2022-10-22T07:21:00;12.00;99.90
8043;DHT22;4064;48.132;11.366;2022-10-22T07:23:27;12.10;99.90
8043;DHT22;4064;48.132;11.366;2022-10-22T07:25:53;12.10;99.90
8043;DHT22;4064;48.132;11.366;2022-10-22T07:28:19;12.10;99.90
8043;DHT22;4064;48.132;11.366;2022-10-22T07:30:45;12.10;99.90
8043;DHT22;4064;48.132;11.366;2022-10-22T07:33:11;12.20;99.90
8043;DHT22;4064;48.132;11.366;2022-10-22T07:35:37;12.20;99.90
8043;DHT22;4064;48.132;11.366;2022-10-22T07:38:04;12.30;99.90
8043;DHT22;4064;48.132;11.366;2022-10-22T07:40:30;12.20;99.90
8043;DHT22;4064;48.132;11.366;2022-10-22T07:42:56;12.30;99.90
8043;DHT22;4064;48.132;11.366;2022-10-22T07:45:21;12.30;99.90
8043;DHT22;4064;48.132;11.366;2022-10-22T07:47:47;12.40;99.90
8043;DHT22;4064;48.132;11.366;2022-10-22T07:50:13;12.50;99.90
8043;DHT22;4064;48.132;11.366;2022-10-22T07:52:39;12.50;99.90
8043;DHT22;4064;48.132;11.366;2022-10-22T07:55:05;12.70;99.90
8043;DHT22;4064;48.132;11.366;2022-10-22T07:57:30;12.70;99.90
8043;DHT22;4064;48.132;11.366;2022-10-22T07:59:56;12.80;99.90
8043;DHT22;4064;48.132;11.366;2022-10-22T08:02:23;12.80;99.90
8043;DHT22;4064;48.132;11.366;2022-10-22T08:04:49;12.80;99.90
8043;DHT22;4064;48.132;11.366;2022-10-22T08:07:14;12.90;99.90
8043;DHT22;4064;48.132;11.366;2022-10-22T08:09:40;12.90;99.90
8043;DHT22;4064;48.132;11.366;2022-10-22T08:12:06;12.90;99.90
8043;DHT22;4064;48.132;11.366;2022-10-22T08:14:32;12.90;99.90
8043;DHT22;4064;48.132;11.366;2022-10-22T08:16:57;12.90;99.90
8043;DHT22;4064;48.132;11.366;2022-10-22T08:19:23;12.90;99.90
8043;DHT22;4064;48.132;11.366;2022-10-22T08:21:49;12.90;99.90
8043;DHT22;4064;48.132;11.366;2022-10-22T08:24:14;12.90;99.90
8043;DHT22;4064;48.132;11.366;2022-10-22T08:26:41;12.90;99.90
8043;DHT22;4064;48.132;11.366;2022-10-22T08:29:06;13.00;99.90
8043;DHT22;4064;48.132;11.366;2022-10-22T08:31:32;13.00;99.90
8043;DHT22;4064;48.132;11.366;2022-10-22T08:33:58;13.10;99.90
8043;DHT22;4064;48.132;11.366;2022-10-22T08:36:24;13.10;99.90
8043;DHT22;4064;48.132;11.366;2022-10-22T08:38:49;13.10;99.90
8043;DHT22;4064;48.132;11.366;2022-10-22T08:41:21;13.10;99.90
8043;DHT22;4064;48.132;11.366;2022-10-22T08:44:06;13.20;99.90
8043;DHT22;4064;48.132;11.366;2022-10-22T08:46:46;13.20;99.90
8043;DHT22;4064;48.132;11.366;2022-10-22T08:49:33;13.30;99.90
8043;DHT22;4064;48.132;11.366;2022-10-22T08:51:59;13.40;99.90
8043;DHT22;4064;48.132;11.366;2022-10-22T08:54:56;13.30;99.90
8043;DHT22;4064;48.132;11.366;2022-10-22T09:00:01;13.40;99.90
8043;DHT22;4064;48.132;11.366;2022-10-22T09:07:53;13.50;99.90
8043;DHT22;4064;48.132;11.366;2022-10-22T09:10:23;13.60;99.90
8043;DHT22;4064;48.132;11.366;2022-10-22T09:12:50;13.60;99.90
8043;DHT22;4064;48.132;11.366;2022-10-22T09:15:17;13.60;99.90
8043;DHT22;4064;48.132;11.366;2022-10-22T09:18:02;13.50;99.90
8043;DHT22;4064;48.132;11.366;2022-10-22T09:20:37;13.60;99.90
8043;DHT22;4064;48.132;11.366;2022-10-22T09:25:45;13.70;99.90
8043;DHT22;4064;48.132;11.366;2022-10-22T09:28:13;13.80;99.90
8043;DHT22;4064;48.132;11.366;2022-10-22T09:30:39;13.80;99.90
8043;DHT22;4064;48.132;11.366;2022-10-22T09:35:55;13.90;99.90
8043;DHT22;4064;48.132;11.366;2022-10-22T09:38:30;13.80;99.90
8043;DHT22;4064;48.132;11.366;2022-10-22T09:40:59;13.90;99.90
8043;DHT22;4064;48.132;11.366;2022-10-22T09:43:25;13.90;99.90
8043;DHT22;4064;48.132;11.366;2022-10-22T09:45:59;14.00;99.90
8043;DHT22;4064;48.132;11.366;2022-10-22T09:48:40;14.10;99.90
8043;DHT22;4064;48.132;11.366;2022-10-22T09:53:55;14.10;99.90
8043;DHT22;4064;48.132;11.366;2022-10-22T09:56:33;14.20;99.90
8043;DHT22;4064;48.132;11.366;2022-10-22T09:59:03;14.20;99.90
8043;DHT22;4064;48.132;11.366;2022-10-22T10:01:33;14.20;99.90
8043;DHT22;4064;48.132;11.366;2022-10-22T10:04:05;14.10;99.90
8043;DHT22;4064;48.132;11.366;2022-10-22T10:06:32;14.20;99.90
8043;DHT22;4064;48.132;11.366;2022-10-22T10:08:58;14.30;99.90
8043;DHT22;4064;48.132;11.366;2022-10-22T10:11:32;14.50;99.90
8043;DHT22;4064;48.132;11.366;2022-10-22T10:17:09;14.80;99.90
8043;DHT22;4064;48.132;11.366;2022-10-22T10:22:36;15.10;99.90
8043;DHT22;4064;48.132;11.366;2022-10-22T10:30:47;15.50;99.90
8043;DHT22;4064;48.132;11.366;2022-10-22T10:36:18;15.70;99.90
8043;DHT22;4064;48.132;11.366;2022-10-22T10:49:35;16.80;99.90
8043;DHT22;4064;48.132;11.366;2022-10-22T10:55:21;16.80;99.90
8043;DHT22;4064;48.132;11.366;2022-10-22T10:58:14;16.80;99.90
8043;DHT22;4064;48.132;11.366;2022-10-22T11:01:18;16.90;99.90
8043;DHT22;4064;48.132;11.366;2022-10-22T11:06:20;17.10;99.90
8043;DHT22;4064;48.132;11.366;2022-10-22T11:09:40;17.00;99.90
8043;DHT22;4064;48.132;11.366;2022-10-22T11:11:49;16.90;99.90
8043;DHT22;4064;48.132;11.366;2022-10-22T11:14:20;16.90;99.90
8043;DHT22;4064;48.132;11.366;2022-10-22T11:17:09;17.00;99.90
8043;DHT22;4064;48.132;11.366;2022-10-22T11:19:59;17.10;99.90
8043;DHT22;4064;48.132;11.366;2022-10-22T11:25:28;17.40;99.90
8043;DHT22;4064;48.132;11.366;2022-10-22T11:28:07;17.50;99.90
8043;DHT22;4064;48.132;11.366;2022-10-22T11:30:36;17.60;99.90
8043;DHT22;4064;48.132;11.366;2022-10-22T11:33:10;17.70;99.90
8043;DHT22;4064;48.132;11.366;2022-10-22T11:35:40;17.70;99.90
8043;DHT22;4064;48.132;11.366;2022-10-22T11:38:11;17.90;99.90
8043;DHT22;4064;48.132;11.366;2022-10-22T11:40:44;17.90;99.90
8043;DHT22;4064;48.132;11.366;2022-10-22T11:43:50;18.10;99.90
8043;DHT22;4064;48.132;11.366;2022-10-22T11:48:42;18.40;99.90
8043;DHT22;4064;48.132;11.366;2022-10-22T11:51:36;18.60;99.90
8043;DHT22;4064;48.132;11.366;2022-10-22T11:57:19;19.40;99.90
8043;DHT22;4064;48.132;11.366;2022-10-22T12:04:55;19.80;99.90
8043;DHT22;4064;48.132;11.366;2022-10-22T12:10:25;19.70;99.90
8043;DHT22;4064;48.132;11.366;2022-10-22T12:12:56;19.60;99.90
8043;DHT22;4064;48.132;11.366;2022-10-22T12:15:25;19.50;99.90
8043;DHT22;4064;48.132;11.366;2022-10-22T12:18:03;19.50;99.90
8043;DHT22;4064;48.132;11.366;2022-10-22T12:20:30;19.60;99.90
8043;DHT22;4064;48.132;11.366;2022-10-22T12:22:57;19.80;99.90
8043;DHT22;4064;48.132;11.366;2022-10-22T12:25:28;20.10;99.90
8043;DHT22;4064;48.132;11.366;2022-10-22T12:27:59;20.30;99.90
8043;DHT22;4064;48.132;11.366;2022-10-22T12:30:33;20.60;99.90
8043;DHT22;4064;48.132;11.366;2022-10-22T12:33:02;20.70;99.90
8043;DHT22;4064;48.132;11.366;2022-10-22T12:35:34;20.50;99.90
8043;DHT22;4064;48.132;11.366;2022-10-22T12:38:18;20.20;99.90
8043;DHT22;4064;48.132;11.366;2022-10-22T12:40:45;19.70;99.90
8043;DHT22;4064;48.132;11.366;2022-10-22T12:43:17;19.80;99.90
8043;DHT22;4064;48.132;11.366;2022-10-22T12:45:45;19.90;99.90
8043;DHT22;4064;48.132;11.366;2022-10-22T12:48:23;20.10;99.90
8043;DHT22;4064;48.132;11.366;2022-10-22T12:50:54;20.40;99.90
8043;DHT22;4064;48.132;11.366;2022-10-22T12:53:22;20.70;99.90
8043;DHT22;4064;48.132;11.366;2022-10-22T12:55:51;21.10;99.90
8043;DHT22;4064;48.132;11.366;2022-10-22T12:58:19;20.60;99.90
8043;DHT22;4064;48.132;11.366;2022-10-22T13:00:47;20.30;99.90
8043;DHT22;4064;48.132;11.366;2022-10-22T13:03:28;20.10;99.90
8043;DHT22;4064;48.132;11.366;2022-10-22T13:05:54;20.30;99.90
8043;DHT22;4064;48.132;11.366;2022-10-22T13:08:22;20.40;99.90
8043;DHT22;4064;48.132;11.366;2022-10-22T13:10:52;20.50;99.90
8043;DHT22;4064;48.132;11.366;2022-10-22T13:13:42;20.50;99.90
8043;DHT22;4064;48.132;11.366;2022-10-22T13:16:22;20.50;99.90
8043;DHT22;4064;48.132;11.366;2022-10-22T13:18:52;20.30;99.90
8043;DHT22;4064;48.132;11.366;2022-10-22T13:24:20;19.70;99.90
8043;DHT22;4064;48.132;11.366;2022-10-22T13:26:52;19.40;99.90
8043;DHT22;4064;48.132;11.366;2022-10-22T13:29:19;19.40;99.90
8043;DHT22;4064;48.132;11.366;2022-10-22T13:31:48;19.20;99.90
8043;DHT22;4064;48.132;11.366;2022-10-22T13:34:22;18.90;99.90
8043;DHT22;4064;48.132;11.366;2022-10-22T13:36:48;18.70;99.90
8043;DHT22;4064;48.132;11.366;2022-10-22T13:39:22;18.50;99.90
8043;DHT22;4064;48.132;11.366;2022-10-22T13:41:49;18.30;99.90
8043;DHT22;4064;48.132;11.366;2022-10-22T13:44:18;18.20;99.90
8043;DHT22;4064;48.132;11.366;2022-10-22T13:46:45;18.20;99.90
8043;DHT22;4064;48.132;11.366;2022-10-22T13:49:17;18.20;99.90
8043;DHT22;4064;48.132;11.366;2022-10-22T13:51:44;18.30;99.90
8043;DHT22;4064;48.132;11.366;2022-10-22T13:54:20;18.30;99.90
8043;DHT22;4064;48.132;11.366;2022-10-22T13:56:46;18.50;99.90
8043;DHT22;4064;48.132;11.366;2022-10-22T13:59:12;18.70;99.90
8043;DHT22;4064;48.132;11.366;2022-10-22T14:01:38;18.90;99.90
8043;DHT22;4064;48.132;11.366;2022-10-22T14:04:05;19.00;99.90
8043;DHT22;4064;48.132;11.366;2022-10-22T14:06:32;19.20;99.90
8043;DHT22;4064;48.132;11.366;2022-10-22T14:09:09;19.40;99.90
8043;DHT22;4064;48.132;11.366;2022-10-22T14:11:35;19.60;99.90
8043;DHT22;4064;48.132;11.366;2022-10-22T14:14:01;19.60;99.90
8043;DHT22;4064;48.132;11.366;2022-10-22T14:16:33;19.70;99.90
8043;DHT22;4064;48.132;11.366;2022-10-22T14:19:00;19.80;99.90
8043;DHT22;4064;48.132;11.366;2022-10-22T14:21:29;20.00;99.90
8043;DHT22;4064;48.132;11.366;2022-10-22T14:23:57;20.10;99.90
8043;DHT22;4064;48.132;11.366;2022-10-22T14:26:26;20.10;99.90
8043;DHT22;4064;48.132;11.366;2022-10-22T14:28:53;20.10;99.90
8043;DHT22;4064;48.132;11.366;2022-10-22T14:31:19;20.20;99.90
8043;DHT22;4064;48.132;11.366;2022-10-22T14:33:45;20.20;99.90
8043;DHT22;4064;48.132;11.366;2022-10-22T14:36:15;20.10;99.40
8043;DHT22;4064;48.132;11.366;2022-10-22T14:38:42;20.00;99.30
8043;DHT22;4064;48.132;11.366;2022-10-22T14:41:23;19.90;99.20
8043;DHT22;4064;48.132;11.366;2022-10-22T14:43:50;19.70;99.20
8043;DHT22;4064;48.132;11.366;2022-10-22T14:46:16;19.50;99.60
8043;DHT22;4064;48.132;11.366;2022-10-22T14:48:42;19.30;99.10
8043;DHT22;4064;48.132;11.366;2022-10-22T14:51:26;19.10;99.70
8043;DHT22;4064;48.132;11.366;2022-10-22T14:53:52;18.90;99.90
8043;DHT22;4064;48.132;11.366;2022-10-22T14:56:18;18.60;99.90
8043;DHT22;4064;48.132;11.366;2022-10-22T14:58:45;18.40;99.90
8043;DHT22;4064;48.132;11.366;2022-10-22T15:01:11;18.20;99.90
8043;DHT22;4064;48.132;11.366;2022-10-22T15:03:37;18.10;99.90
8043;DHT22;4064;48.132;11.366;2022-10-22T15:06:03;17.90;99.90
8043;DHT22;4064;48.132;11.366;2022-10-22T15:08:29;17.80;99.90
8043;DHT22;4064;48.132;11.366;2022-10-22T15:11:03;17.70;99.90
8043;DHT22;4064;48.132;11.366;2022-10-22T15:13:29;17.50;99.90
8043;DHT22;4064;48.132;11.366;2022-10-22T15:15:56;17.40;99.90
8043;DHT22;4064;48.132;11.366;2022-10-22T15:18:22;17.20;99.90
8043;DHT22;4064;48.132;11.366;2022-10-22T15:21:15;17.10;99.90
8043;DHT22;4064;48.132;11.366;2022-10-22T15:23:40;17.00;99.90
8043;DHT22;4064;48.132;11.366;2022-10-22T15:26:07;16.90;99.90
8043;DHT22;4064;48.132;11.366;2022-10-22T15:28:33;16.80;99.90
8043;DHT22;4064;48.132;11.366;2022-10-22T15:31:00;16.60;99.90
8043;DHT22;4064;48.132;11.366;2022-10-22T15:33:26;16.50;99.90
8043;DHT22;4064;48.132;11.366;2022-10-22T15:35:52;16.40;99.90
8043;DHT22;4064;48.132;11.366;2022-10-22T15:38:19;16.20;99.90
8043;DHT22;4064;48.132;11.366;2022-10-22T15:40:44;16.20;99.90
8043;DHT22;4064;48.132;11.366;2022-10-22T15:43:10;16.10;99.90
8043;DHT22;4064;48.132;11.366;2022-10-22T15:45:36;16.00;99.90
8043;DHT22;4064;48.132;11.366;2022-10-22T15:48:02;15.80;99.90
8043;DHT22;4064;48.132;11.366;2022-10-22T15:50:27;15.70;99.90
8043;DHT22;4064;48.132;11.366;2022-10-22T15:52:53;15.60;99.90
8043;DHT22;4064;48.132;11.366;2022-10-22T15:55:19;15.50;99.90
8043;DHT22;4064;48.132;11.366;2022-10-22T15:57:45;15.40;99.90
8043;DHT22;4064;48.132;11.366;2022-10-22T16:00:11;15.30;99.90
8043;DHT22;4064;48.132;11.366;2022-10-22T16:02:37;15.20;99.90
8043;DHT22;4064;48.132;11.366;2022-10-22T16:05:03;15.10;99.90
8043;DHT22;4064;48.132;11.366;2022-10-22T16:07:29;15.00;99.90
8043;DHT22;4064;48.132;11.366;2022-10-22T16:09:55;14.90;99.90
8043;DHT22;4064;48.132;11.366;2022-10-22T16:12:21;14.70;99.90
8043;DHT22;4064;48.132;11.366;2022-10-22T16:14:50;14.60;99.90
8043;DHT22;4064;48.132;11.366;2022-10-22T16:17:16;14.50;99.90
8043;DHT22;4064;48.132;11.366;2022-10-22T16:19:42;14.40;99.90
8043;DHT22;4064;48.132;11.366;2022-10-22T16:22:08;14.30;99.90
8043;DHT22;4064;48.132;11.366;2022-10-22T16:24:36;14.20;99.90
8043;DHT22;4064;48.132;11.366;2022-10-22T16:27:08;14.10;99.90
8043;DHT22;4064;48.132;11.366;2022-10-22T16:29:36;14.00;99.90
8043;DHT22;4064;48.132;11.366;2022-10-22T16:32:02;13.90;99.90
8043;DHT22;4064;48.132;11.366;2022-10-22T16:34:28;13.80;99.90
8043;DHT22;4064;48.132;11.366;2022-10-22T16:36:54;13.70;99.90
8043;DHT22;4064;48.132;11.366;2022-10-22T16:39:21;13.60;99.90
8043;DHT22;4064;48.132;11.366;2022-10-22T16:41:47;13.50;99.90
8043;DHT22;4064;48.132;11.366;2022-10-22T16:44:12;13.40;99.90
8043;DHT22;4064;48.132;11.366;2022-10-22T16:46:38;13.40;99.90
8043;DHT22;4064;48.132;11.366;2022-10-22T16:49:05;13.30;99.90
8043;DHT22;4064;48.132;11.366;2022-10-22T16:51:31;13.20;99.90
8043;DHT22;4064;48.132;11.366;2022-10-22T16:53:56;13.10;99.90
8043;DHT22;4064;48.132;11.366;2022-10-22T16:56:23;13.10;99.90
8043;DHT22;4064;48.132;11.366;2022-10-22T16:58:51;13.00;99.90
8043;DHT22;4064;48.132;11.366;2022-10-22T17:01:19;12.90;99.90
8043;DHT22;4064;48.132;11.366;2022-10-22T17:03:45;12.90;99.90
8043;DHT22;4064;48.132;11.366;2022-10-22T17:06:11;12.80;99.90
8043;DHT22;4064;48.132;11.366;2022-10-22T17:08:38;12.70;99.90
8043;DHT22;4064;48.132;11.366;2022-10-22T17:11:09;12.70;99.90
8043;DHT22;4064;48.132;11.366;2022-10-22T17:13:35;12.60;99.90
8043;DHT22;4064;48.132;11.366;2022-10-22T17:16:06;12.60;99.90
8043;DHT22;4064;48.132;11.366;2022-10-22T17:18:34;12.50;99.90
8043;DHT22;4064;48.132;11.366;2022-10-22T17:21:00;12.50;99.90
8043;DHT22;4064;48.132;11.366;2022-10-22T17:23:26;12.40;99.90
8043;DHT22;4064;48.132;11.366;2022-10-22T17:26:02;12.30;99.90
8043;DHT22;4064;48.132;11.366;2022-10-22T17:28:31;12.30;99.90
8043;DHT22;4064;48.132;11.366;2022-10-22T17:33:43;12.10;99.90
8043;DHT22;4064;48.132;11.366;2022-10-22T17:36:09;12.10;99.90